createdAt,value
2023-03-21T00:01:51.515Z,9.80
2023-03-21T00:04:18.244Z,10.93
2023-03-21T00:06:44.974Z,8.95
2023-03-21T00:09:12.307Z,10.45
2023-03-21T00:11:39.140Z,9.52
2023-03-21T00:14:08.613Z,10.07
2023-03-21T00:16:37.133Z,12.27
2023-03-21T00:19:07.626Z,11.43
2023-03-21T00:21:51.938Z,12.43
2023-03-21T00:24:26.203Z,12.90
2023-03-21T00:26:53.933Z,13.43
2023-03-21T00:29:21.730Z,11.95
2023-03-21T00:31:48.453Z,14.15
2023-03-21T00:34:15.981Z,11.88
2023-03-21T00:36:43.294Z,12.60
2023-03-21T00:39:11.170Z,12.23
2023-03-21T00:41:45.097Z,11.70
2023-03-21T00:44:15.546Z,12.80
2023-03-21T00:46:57.072Z,12.45
2023-03-21T00:49:27.704Z,12.43
2023-03-21T00:51:57.228Z,12.98
2023-03-21T00:54:24.527Z,11.90
2023-03-21T00:56:51.118Z,11.10
2023-03-21T00:59:18.211Z,11.52
2023-03-21T01:01:46.934Z,11.80
2023-03-21T01:04:16.824Z,11.57
2023-03-21T01:06:44.591Z,10.23
2023-03-21T01:09:19.712Z,10.98
2023-03-21T01:14:22.482Z,10.82
2023-03-21T01:16:52.353Z,9.77
2023-03-21T01:19:27.618Z,9.93
2023-03-21T01:21:58.280Z,9.57
2023-03-21T01:24:25.390Z,9.50
2023-03-21T01:26:53.300Z,9.18
2023-03-21T01:29:20.138Z,9.20
2023-03-21T01:31:47.323Z,9.07
2023-03-21T01:34:15.615Z,9.07
2023-03-21T01:36:42.334Z,9.82
2023-03-21T01:39:14.627Z,9.10
2023-03-21T01:41:44.341Z,8.82
2023-03-21T01:45:31.565Z,8.57
2023-03-21T01:47:58.335Z,8.45
2023-03-21T01:50:33.578Z,8.82
2023-03-21T01:53:11.529Z,8.00
2023-03-21T01:55:39.694Z,8.32
2023-03-21T01:58:22.998Z,7.85
2023-03-21T02:01:05.271Z,7.35
2023-03-21T02:03:50.676Z,7.40
2023-03-21T02:06:44.941Z,6.93
2023-03-21T02:09:26.234Z,7.53
2023-03-21T02:11:54.872Z,8.48
2023-03-21T02:14:29.330Z,7.60
2023-03-21T02:17:28.130Z,8.52
2023-03-21T02:20:22.159Z,7.10
2023-03-21T02:23:10.403Z,8.07
2023-03-21T02:26:08.446Z,7.05
2023-03-21T02:28:42.159Z,7.18
2023-03-21T02:34:22.156Z,6.50
2023-03-21T02:37:11.490Z,7.05
2023-03-21T02:40:01.271Z,6.55
2023-03-21T02:43:07.199Z,6.63
2023-03-21T02:45:49.713Z,5.82
2023-03-21T02:48:30.991Z,6.43
2023-03-21T02:51:05.126Z,6.45
2023-03-21T02:53:36.931Z,6.57
2023-03-21T02:56:10.759Z,6.35
2023-03-21T02:58:44.753Z,7.18
2023-03-21T03:01:11.554Z,7.95
2023-03-21T03:03:43.973Z,7.35
2023-03-21T03:06:24.864Z,6.70
2023-03-21T03:09:20.961Z,6.65
2023-03-21T03:11:54.651Z,7.65
2023-03-21T03:17:17.638Z,6.55
2023-03-21T03:20:15.659Z,6.25
2023-03-21T03:23:24.491Z,6.63
2023-03-21T03:26:20.313Z,6.38
2023-03-21T03:28:52.908Z,6.55
2023-03-21T03:31:32.177Z,6.87
2023-03-21T03:34:07.110Z,7.05
2023-03-21T03:36:47.621Z,5.85
2023-03-21T03:39:18.133Z,6.50
2023-03-21T03:42:27.214Z,6.40
2023-03-21T03:44:49.924Z,6.80
2023-03-21T03:47:56.321Z,7.03
2023-03-21T03:50:34.654Z,7.00
2023-03-21T03:53:16.396Z,6.13
2023-03-21T03:55:46.073Z,6.70
2023-03-21T03:58:23.184Z,6.22
2023-03-21T04:00:54.749Z,6.97
2023-03-21T04:03:22.059Z,7.00
2023-03-21T04:05:50.420Z,6.82
2023-03-21T04:08:19.766Z,6.38
2023-03-21T04:10:51.881Z,5.68
2023-03-21T04:13:19.407Z,6.57
2023-03-21T04:16:11.806Z,6.18
2023-03-21T04:18:41.860Z,6.68
2023-03-21T04:21:10.793Z,6.45
2023-03-21T04:23:38.358Z,6.82
2023-03-21T04:26:06.409Z,6.35
2023-03-21T04:28:40.832Z,6.97
2023-03-21T04:31:31.081Z,6.88
2023-03-21T04:34:09.897Z,6.40
2023-03-21T04:36:39.408Z,6.38
2023-03-21T04:39:12.697Z,6.78
2023-03-21T04:41:45.721Z,6.78
2023-03-21T04:44:14.209Z,6.65
2023-03-21T04:46:41.388Z,7.00
2023-03-21T04:49:10.371Z,6.72
2023-03-21T04:51:37.614Z,6.80
2023-03-21T04:56:36.290Z,7.13
2023-03-21T04:59:09.165Z,6.68
2023-03-21T05:01:37.070Z,6.35
2023-03-21T05:04:04.809Z,6.32
2023-03-21T05:06:34.188Z,7.47
2023-03-21T05:09:01.678Z,6.50
2023-03-21T05:11:31.086Z,6.95
2023-03-21T05:14:01.485Z,6.43
2023-03-21T05:16:31.024Z,6.10
2023-03-21T05:19:03.726Z,6.13
2023-03-21T05:21:41.592Z,6.07
2023-03-21T05:24:15.890Z,6.15
2023-03-21T05:26:44.158Z,6.32
2023-03-21T05:29:15.009Z,6.18
2023-03-21T05:31:44.297Z,6.13
2023-03-21T05:34:14.444Z,5.70
2023-03-21T05:36:41.778Z,6.40
2023-03-21T05:39:10.644Z,5.63
2023-03-21T05:41:42.873Z,5.28
2023-03-21T05:44:09.704Z,6.03
2023-03-21T05:46:37.987Z,5.65
2023-03-21T05:49:05.926Z,5.07
2023-03-21T05:51:32.743Z,5.72
2023-03-21T05:53:59.470Z,5.10
2023-03-21T05:56:26.199Z,4.60
2023-03-21T05:58:57.490Z,5.32
2023-03-21T06:01:25.481Z,5.20
2023-03-21T06:04:00.922Z,4.88
2023-03-21T06:06:29.173Z,4.82
2023-03-21T06:08:59.724Z,4.80
2023-03-21T06:11:31.033Z,5.00
2023-03-21T06:14:20.722Z,4.85
2023-03-21T06:17:04.578Z,4.68
2023-03-21T06:19:31.957Z,5.30
2023-03-21T06:22:06.811Z,4.70
2023-03-21T06:24:36.284Z,4.47
2023-03-21T06:27:04.092Z,5.03
2023-03-21T06:29:42.156Z,4.80
2023-03-21T06:32:08.874Z,4.95
2023-03-21T06:34:37.752Z,4.53
2023-03-21T06:37:06.850Z,5.07
2023-03-21T06:39:35.456Z,4.82
2023-03-21T06:42:02.809Z,5.13
2023-03-21T06:44:29.873Z,5.85
2023-03-21T06:47:03.322Z,5.50
2023-03-21T06:49:30.848Z,5.90
2023-03-21T06:52:04.791Z,5.50
2023-03-21T06:54:31.581Z,5.85
2023-03-21T06:57:08.222Z,5.53
2023-03-21T06:59:36.247Z,5.43
2023-03-21T07:02:06.956Z,5.55
2023-03-21T07:04:39.908Z,5.20
2023-03-21T07:07:11.843Z,5.55
2023-03-21T07:09:39.872Z,5.35
2023-03-21T07:12:06.578Z,5.07
2023-03-21T07:14:45.431Z,5.35
2023-03-21T07:17:12.138Z,5.55
2023-03-21T07:19:38.847Z,5.13
2023-03-21T07:22:06.084Z,5.40
2023-03-21T07:24:33.066Z,5.22
2023-03-21T07:26:59.847Z,6.00
2023-03-21T07:29:26.698Z,6.00
2023-03-21T07:31:53.458Z,6.30
2023-03-21T07:34:22.458Z,6.75
2023-03-21T07:36:50.430Z,6.15
2023-03-21T07:39:17.967Z,6.10
2023-03-21T07:41:44.742Z,6.35
2023-03-21T07:44:23.467Z,6.80
2023-03-21T07:47:01.477Z,6.30
2023-03-21T07:49:28.523Z,6.75
2023-03-21T07:51:55.574Z,6.63
2023-03-21T07:54:23.197Z,6.65
2023-03-21T07:56:49.737Z,7.50
2023-03-21T07:59:16.519Z,7.70
2023-03-21T08:01:43.354Z,6.93
2023-03-21T08:04:10.866Z,7.35
2023-03-21T08:06:37.464Z,6.78
2023-03-21T08:09:04.185Z,6.90
2023-03-21T08:11:33.979Z,6.82
2023-03-21T08:14:01.554Z,6.18
2023-03-21T08:16:29.777Z,6.90
2023-03-21T08:18:56.866Z,6.90
2023-03-21T08:21:25.474Z,6.45
2023-03-21T08:23:53.284Z,7.30
2023-03-21T08:26:20.189Z,6.43
2023-03-21T08:28:47.099Z,7.13
2023-03-21T08:31:14.751Z,6.47
2023-03-21T08:33:41.549Z,7.30
2023-03-21T08:36:10.539Z,6.28
2023-03-21T08:38:37.333Z,6.55
2023-03-21T08:41:04.288Z,6.75
2023-03-21T08:43:30.957Z,6.68
2023-03-21T08:45:57.938Z,6.18
2023-03-21T08:48:24.692Z,6.38
2023-03-21T08:50:51.603Z,6.13
2023-03-21T08:53:18.342Z,7.25
2023-03-21T08:55:45.197Z,5.68
2023-03-21T08:58:12.141Z,6.13
2023-03-21T09:00:41.232Z,6.13
2023-03-21T09:03:08.980Z,6.10
2023-03-21T09:05:37.677Z,6.80
2023-03-21T09:08:05.484Z,5.38
2023-03-21T09:10:32.182Z,5.32
2023-03-21T09:12:59.077Z,5.15
2023-03-21T09:15:28.938Z,6.43
2023-03-21T09:17:58.842Z,5.20
2023-03-21T09:20:31.206Z,5.88
2023-03-21T09:22:59.203Z,5.18
2023-03-21T09:25:31.038Z,5.20
2023-03-21T09:27:59.039Z,5.88
2023-03-21T09:30:26.646Z,5.40
2023-03-21T09:32:55.563Z,5.22
2023-03-21T09:35:22.657Z,4.78
2023-03-21T09:37:49.961Z,5.40
2023-03-21T09:40:58.405Z,5.40
2023-03-21T09:43:34.501Z,4.65
2023-03-21T09:46:15.317Z,5.45
2023-03-21T09:48:57.441Z,5.38
2023-03-21T09:51:31.735Z,4.68
2023-03-21T09:54:03.849Z,4.80
2023-03-21T09:56:31.505Z,4.60
2023-03-21T09:59:00.739Z,4.63
2023-03-21T10:01:42.091Z,4.82
2023-03-21T10:04:16.715Z,4.30
2023-03-21T10:06:45.811Z,4.32
2023-03-21T10:09:21.390Z,4.53
2023-03-21T10:11:57.133Z,4.22
2023-03-21T10:14:32.656Z,4.40
2023-03-21T10:17:16.747Z,3.92
2023-03-21T10:19:46.656Z,3.92
2023-03-21T10:22:15.222Z,4.13
2023-03-21T10:24:42.104Z,4.65
2023-03-21T10:27:13.201Z,4.68
2023-03-21T10:29:44.661Z,4.13
2023-03-21T10:32:14.938Z,4.13
2023-03-21T10:34:46.106Z,4.30
2023-03-21T10:37:14.373Z,4.47
2023-03-21T10:39:52.190Z,4.07
2023-03-21T10:42:21.377Z,3.92
2023-03-21T10:44:50.301Z,4.20
2023-03-21T10:47:27.460Z,3.97
2023-03-21T10:50:07.310Z,5.22
2023-03-21T10:52:37.354Z,3.70
2023-03-21T10:55:22.844Z,5.93
2023-03-21T10:57:55.171Z,4.57
2023-03-21T11:00:25.790Z,8.23
2023-03-21T11:02:54.400Z,5.85
2023-03-21T11:05:33.312Z,5.05
2023-03-21T11:08:18.856Z,4.20
2023-03-21T11:11:05.871Z,4.25
2023-03-21T11:13:41.831Z,3.92
2023-03-21T11:16:12.403Z,4.07
2023-03-21T11:18:54.712Z,3.80
2023-03-21T11:21:29.771Z,4.28
2023-03-21T11:23:57.477Z,4.25
2023-03-21T11:26:32.602Z,3.83
2023-03-21T11:28:59.406Z,4.45
2023-03-21T11:31:44.961Z,4.10
2023-03-21T11:34:28.994Z,4.10
2023-03-21T11:36:59.891Z,4.43
2023-03-21T11:39:41.095Z,4.55
2023-03-21T11:42:30.538Z,3.72
2023-03-21T11:45:04.774Z,3.92
2023-03-21T11:47:31.959Z,3.95
2023-03-21T11:50:05.033Z,3.45
2023-03-21T11:55:42.145Z,4.28
2023-03-21T11:58:18.297Z,3.65
2023-03-21T12:00:55.954Z,3.70
2023-03-21T12:03:56.816Z,3.88
2023-03-21T12:06:38.950Z,4.05
2023-03-21T12:09:44.187Z,4.20
2023-03-21T12:12:39.113Z,4.20
2023-03-21T12:15:34.910Z,3.65
2023-03-21T12:18:21.729Z,3.85
2023-03-21T12:20:58.700Z,3.65
2023-03-21T12:24:10.799Z,3.70
2023-03-21T12:26:58.110Z,3.35
2023-03-21T12:29:58.011Z,3.42
2023-03-21T12:32:52.901Z,3.20
2023-03-21T12:35:19.683Z,2.70
2023-03-21T12:38:19.166Z,2.95
2023-03-21T12:41:06.088Z,3.00
2023-03-21T12:44:11.754Z,3.13
2023-03-21T12:46:54.131Z,3.17
2023-03-21T12:49:38.111Z,2.83
2023-03-21T12:52:15.610Z,3.22
2023-03-21T12:55:19.933Z,3.70
2023-03-21T13:00:38.387Z,3.15
2023-03-21T13:03:14.390Z,3.60
2023-03-21T13:05:46.998Z,3.20
2023-03-21T13:08:37.336Z,3.42
2023-03-21T13:11:06.670Z,2.90
2023-03-21T13:13:39.199Z,3.28
2023-03-21T13:16:29.001Z,3.65
2023-03-21T13:19:01.362Z,3.85
2023-03-21T13:21:36.428Z,3.33
2023-03-21T13:24:24.917Z,3.72
2023-03-21T13:27:07.802Z,3.40
2023-03-21T13:29:54.385Z,3.60
2023-03-21T13:32:35.878Z,3.22
2023-03-21T13:35:18.405Z,3.40
2023-03-21T13:38:17.270Z,3.00
2023-03-21T13:40:57.218Z,3.72
2023-03-21T13:43:40.362Z,3.38
2023-03-21T13:46:50.403Z,3.90
2023-03-21T13:49:34.135Z,3.78
2023-03-21T13:52:21.376Z,3.42
2023-03-21T13:54:54.505Z,3.17
2023-03-21T13:57:33.279Z,3.60
2023-03-21T14:00:39.973Z,3.80
2023-03-21T14:03:10.186Z,3.72
2023-03-21T14:05:38.954Z,3.40
2023-03-21T14:08:15.654Z,3.70
2023-03-21T14:10:49.155Z,4.10
2023-03-21T14:13:19.590Z,3.97
2023-03-21T14:15:56.245Z,3.75
2023-03-21T14:18:34.934Z,4.05
2023-03-21T14:21:24.164Z,3.63
2023-03-21T14:24:06.116Z,3.70
2023-03-21T14:26:36.261Z,3.70
2023-03-21T14:29:12.333Z,3.33
2023-03-21T14:31:47.052Z,3.58
2023-03-21T14:34:18.021Z,3.30
2023-03-21T14:36:56.945Z,3.80
2023-03-21T14:39:28.900Z,3.60
2023-03-21T14:42:01.035Z,3.70
2023-03-21T14:44:47.394Z,3.60
2023-03-21T14:47:22.908Z,3.35
2023-03-21T14:49:52.742Z,3.30
2023-03-21T14:52:41.179Z,3.42
2023-03-21T14:55:16.454Z,3.40
2023-03-21T14:57:45.912Z,3.33
2023-03-21T15:00:23.258Z,3.00
2023-03-21T15:02:51.464Z,3.15
2023-03-21T15:05:18.481Z,3.33
2023-03-21T15:07:54.263Z,3.38
2023-03-21T15:10:21.189Z,3.20
2023-03-21T15:13:13.214Z,3.03
2023-03-21T15:15:41.409Z,3.30
2023-03-21T15:18:11.176Z,3.20
2023-03-21T15:20:39.211Z,3.35
2023-03-21T15:23:15.181Z,2.83
2023-03-21T15:25:43.095Z,3.50
2023-03-21T15:28:15.347Z,3.00
2023-03-21T15:30:50.118Z,3.20
2023-03-21T15:33:18.134Z,2.80
2023-03-21T15:35:54.212Z,3.22
2023-03-21T15:38:44.731Z,3.25
2023-03-21T15:41:20.566Z,3.47
2023-03-21T15:44:10.250Z,3.10
2023-03-21T15:46:49.157Z,3.33
2023-03-21T15:49:19.272Z,3.30
2023-03-21T15:51:53.792Z,3.42
2023-03-21T15:54:25.511Z,3.10
2023-03-21T15:56:55.061Z,4.07
2023-03-21T15:59:26.028Z,3.90
2023-03-21T16:01:53.241Z,4.10
2023-03-21T16:04:20.071Z,3.92
2023-03-21T16:07:05.184Z,4.03
2023-03-21T16:09:43.603Z,4.50
2023-03-21T16:12:17.008Z,5.22
2023-03-21T16:14:46.399Z,4.45
2023-03-21T16:17:41.095Z,4.15
2023-03-21T16:20:20.844Z,4.68
2023-03-21T16:22:47.980Z,4.20
2023-03-21T16:25:14.883Z,4.95
2023-03-21T16:27:44.065Z,4.82
2023-03-21T16:30:16.649Z,4.47
2023-03-21T16:32:44.680Z,4.75
2023-03-21T16:35:11.567Z,4.18
2023-03-21T16:37:41.555Z,4.75
2023-03-21T16:40:37.372Z,3.88
2023-03-21T16:43:04.280Z,4.90
2023-03-21T16:45:31.908Z,4.88
2023-03-21T16:47:59.346Z,5.15
2023-03-21T16:50:28.380Z,5.18
2023-03-21T16:52:56.404Z,5.47
2023-03-21T16:55:24.319Z,4.93
2023-03-21T16:57:54.694Z,4.85
2023-03-21T17:00:29.121Z,5.72
2023-03-21T17:02:58.548Z,5.40
2023-03-21T17:05:27.789Z,5.60
2023-03-21T17:07:54.768Z,5.75
2023-03-21T17:10:29.633Z,6.03
2023-03-21T17:12:56.818Z,6.43
2023-03-21T17:15:23.634Z,8.52
2023-03-21T17:17:50.363Z,10.48
2023-03-21T17:20:24.956Z,8.48
2023-03-21T17:22:52.409Z,26.65
2023-03-21T17:25:20.036Z,7.30
2023-03-21T17:27:47.746Z,5.75
2023-03-21T17:30:26.850Z,5.78
2023-03-21T17:32:54.335Z,6.75
2023-03-21T17:35:22.997Z,6.85
2023-03-21T17:37:52.267Z,6.38
2023-03-21T17:40:30.941Z,7.72
2023-03-21T17:42:59.331Z,6.35
2023-03-21T17:45:26.150Z,6.22
2023-03-21T17:47:54.938Z,6.10
2023-03-21T17:50:25.908Z,6.47
2023-03-21T17:53:21.706Z,7.20
2023-03-21T17:55:51.512Z,28.02
2023-03-21T17:58:22.152Z,7.03
2023-03-21T18:00:58.605Z,7.20
2023-03-21T18:03:33.907Z,5.30
2023-03-21T18:06:01.807Z,7.25
2023-03-21T18:08:28.403Z,6.60
2023-03-21T18:10:55.381Z,5.75
2023-03-21T18:13:22.201Z,13.77
2023-03-21T18:15:50.645Z,9.85
2023-03-21T18:18:17.747Z,6.57
2023-03-21T18:20:52.168Z,6.78
2023-03-21T18:23:19.796Z,6.85
2023-03-21T18:25:47.124Z,6.88
2023-03-21T18:28:19.433Z,8.18
2023-03-21T18:31:15.736Z,8.63
2023-03-21T18:33:42.081Z,8.43
2023-03-21T18:36:09.867Z,17.60
2023-03-21T18:38:37.439Z,5.97
2023-03-21T18:41:05.747Z,5.32
2023-03-21T18:46:19.297Z,6.28
2023-03-21T18:48:46.595Z,6.07
2023-03-21T18:51:17.606Z,4.93
2023-03-21T18:53:45.770Z,5.63
2023-03-21T18:56:57.713Z,5.30
2023-03-21T18:59:01.902Z,5.38
2023-03-21T19:01:28.768Z,5.18
2023-03-21T19:04:20.066Z,5.30
2023-03-21T19:06:47.597Z,5.50
2023-03-21T19:09:14.895Z,5.90
2023-03-21T19:11:42.823Z,5.80
2023-03-21T19:14:14.900Z,6.32
2023-03-21T19:17:12.133Z,5.50
2023-03-21T19:19:29.579Z,5.22
2023-03-21T19:21:56.540Z,6.60
2023-03-21T19:24:28.149Z,6.38
2023-03-21T19:26:55.713Z,6.40
2023-03-21T19:29:22.519Z,5.80
2023-03-21T19:31:51.122Z,6.03
2023-03-21T19:34:18.687Z,5.60
2023-03-21T19:36:50.730Z,6.40
2023-03-21T19:39:21.911Z,8.55
2023-03-21T19:41:49.144Z,8.45
2023-03-21T19:44:16.605Z,7.55
2023-03-21T19:46:44.462Z,6.30
2023-03-21T19:49:11.270Z,5.93
2023-03-21T19:51:38.046Z,5.63
2023-03-21T19:54:06.043Z,5.90
2023-03-21T19:56:34.531Z,5.88
2023-03-21T19:59:02.965Z,6.38
2023-03-21T20:01:32.444Z,6.53
2023-03-21T20:03:59.882Z,6.00
2023-03-21T20:06:27.322Z,6.70
2023-03-21T20:11:41.651Z,6.25
2023-03-21T20:14:09.161Z,6.43
2023-03-21T20:16:37.004Z,7.00
2023-03-21T20:19:05.961Z,6.60
2023-03-21T20:21:44.517Z,7.13
2023-03-21T20:24:16.230Z,7.65
2023-03-21T20:26:46.566Z,7.22
2023-03-21T20:30:07.605Z,7.82
2023-03-21T20:32:00.771Z,8.88
2023-03-21T20:34:30.529Z,8.88
2023-03-21T20:36:58.342Z,7.47
2023-03-21T20:39:25.200Z,7.97
2023-03-21T20:41:54.675Z,8.48
2023-03-21T20:44:48.042Z,8.55
2023-03-21T20:47:08.465Z,8.45
2023-03-21T20:49:35.858Z,8.27
2023-03-21T20:54:54.146Z,8.10
2023-03-21T20:57:23.099Z,8.13
2023-03-21T20:59:50.115Z,7.05
2023-03-21T21:02:17.157Z,8.90
2023-03-21T21:05:05.091Z,8.68
2023-03-21T21:07:31.223Z,8.02
2023-03-21T21:09:58.362Z,7.95
2023-03-21T21:12:28.793Z,7.25
2023-03-21T21:14:56.657Z,7.50
2023-03-21T21:17:42.842Z,6.95
2023-03-21T21:20:17.577Z,7.85
2023-03-21T21:22:58.625Z,7.72
2023-03-21T21:25:27.569Z,7.53
2023-03-21T21:27:54.368Z,7.65
2023-03-21T21:30:21.628Z,8.15
2023-03-21T21:32:49.448Z,7.18
2023-03-21T21:35:19.907Z,6.13
2023-03-21T21:37:46.572Z,8.15
2023-03-21T21:40:20.465Z,5.90
2023-03-21T21:42:47.569Z,5.47
2023-03-21T21:45:15.749Z,5.65
2023-03-21T21:47:45.250Z,5.47
2023-03-21T21:50:14.375Z,5.25
2023-03-21T21:52:44.040Z,5.30
2023-03-21T21:55:11.119Z,5.13
2023-03-21T21:57:39.715Z,4.78
2023-03-21T22:00:12.837Z,4.95
2023-03-21T22:02:40.724Z,4.65
2023-03-21T22:05:09.085Z,4.75
2023-03-21T22:07:37.604Z,4.53
2023-03-21T22:10:04.817Z,4.38
2023-03-21T22:12:32.271Z,3.80
2023-03-21T22:14:59.091Z,3.65
2023-03-21T22:17:26.238Z,4.00
2023-03-21T22:20:04.784Z,3.00
2023-03-21T22:22:37.174Z,3.05
2023-03-21T22:25:05.352Z,2.88
2023-03-21T22:27:32.770Z,2.67
2023-03-21T22:30:07.460Z,2.60
2023-03-21T22:32:35.489Z,2.75
2023-03-21T22:35:02.575Z,2.92
2023-03-21T22:37:34.596Z,2.83
2023-03-21T22:40:01.769Z,2.72
2023-03-21T22:42:28.447Z,2.58
2023-03-21T22:44:55.415Z,2.72
2023-03-21T22:47:21.953Z,2.30
2023-03-21T22:49:48.606Z,2.60
2023-03-21T22:52:15.229Z,2.53
2023-03-21T22:54:43.167Z,2.80
2023-03-21T22:57:09.738Z,2.65
2023-03-21T22:59:36.529Z,3.05
2023-03-21T23:02:03.626Z,2.60
2023-03-21T23:04:31.942Z,2.72
2023-03-21T23:06:58.778Z,3.00
2023-03-21T23:09:25.721Z,3.05
2023-03-21T23:11:52.312Z,3.10
2023-03-21T23:14:20.823Z,4.20
2023-03-21T23:16:53.306Z,3.42
2023-03-21T23:19:21.917Z,2.65
2023-03-21T23:21:48.671Z,2.60
2023-03-21T23:24:15.981Z,2.75
2023-03-21T23:26:44.739Z,3.17
2023-03-21T23:29:11.821Z,4.15
2023-03-21T23:31:39.866Z,2.72
2023-03-21T23:34:06.857Z,3.20
2023-03-21T23:36:33.465Z,3.38
2023-03-21T23:39:00.655Z,2.90
2023-03-21T23:41:27.332Z,2.80
2023-03-21T23:43:54.243Z,2.53
2023-03-21T23:46:21.038Z,3.08
2023-03-21T23:48:48.630Z,2.85
2023-03-21T23:51:17.496Z,2.60
2023-03-21T23:53:46.569Z,2.50
2023-03-21T23:56:22.341Z,2.70
2023-03-21T23:58:49.962Z,2.90
